Time;durP1;ratioP1;P1;durP2;ratioP2;P2;SDS_P1;SDS_P2;PMS_P1;PMS_P2;Temp;Humidity;BMP_temperature;BMP_pressure;BME280_temperature;BME280_humidity;BME280_pressure;Samples;Min_cycle;Max_cycle;Signal;HPM_P1;HPM_P2
2022/01/08 00:03:01;;;;;;;1.33;1.07;;;;;;;;;;10503426;28;20054;-71
2022/01/08 00:08:06;;;;;;;3.13;1.53;;;;;;;;;;10481491;28;20036;-73
2022/01/08 00:13:09;;;;;;;0.97;0.43;;;;;;;;;;10480243;28;20124;-74
2022/01/08 00:18:12;;;;;;;3.80;1.53;;;;;;;;;;10507626;28;20090;-74
2022/01/08 00:23:17;;;;;;;2.87;1.00;;;;;;;;;;10488846;28;20039;-74
2022/01/08 00:28:19;;;;;;;1.40;1.13;;;;;;;;;;10491691;28;20047;-74
2022/01/08 00:33:22;;;;;;;2.07;1.63;;;;;;;;;;10515137;28;20454;-73
2022/01/08 00:38:27;;;;;;;2.07;1.40;;;;;;;;;;10495314;28;20055;-73
2022/01/08 00:43:29;;;;;;;;;;;;;;;;;;10495278;28;20441;-74
2022/01/08 00:48:32;;;;;;;2.57;1.53;;;;;;;;;;10517497;28;19959;-72
2022/01/08 00:53:36;;;;;;;2.43;1.47;;;;;;;;;;10493986;28;20038;-72
2022/01/08 00:58:39;;;;;;;5.17;1.30;;;;;;;;;;10497007;28;20066;-74
2022/01/08 01:03:42;;;;;;;2.10;1.20;;;;;;;;;;10513776;28;20135;-74
2022/01/08 01:08:47;;;;;;;4.77;2.53;;;;;;;;;;10514768;28;20123;-73
2022/01/08 01:13:49;;;;;;;;;;;;;;;;;;10524035;28;20043;-74
2022/01/08 01:18:53;;;;;;;1.63;1.20;;;;;;;;;;10510647;28;19921;-74
2022/01/08 01:23:59;;;;;;;4.25;1.77;;;;;;;;;;10496287;28;20032;-72
2022/01/08 01:29:22;;;;;;;0.50;0.43;;;;;;;;;;10495859;28;20040;-72
2022/01/08 01:50:31;;;;;;;3.50;0.97;;;;;;;;;;10492030;28;20044;-72
2022/01/08 01:55:35;;;;;;;2.47;1.67;;;;;;;;;;10513361;28;20028;-72
2022/01/08 02:00:37;;;;;;;;;;;;;;;;;;10495874;28;20040;-73
2022/01/08 02:05:40;;;;;;;1.03;0.63;;;;;;;;;;10497216;28;20372;-73
2022/01/08 02:10:45;;;;;;;3.07;1.60;;;;;;;;;;10491085;28;20032;-74
2022/01/08 02:15:51;;;;;;;2.10;0.80;;;;;;;;;;10497046;28;20530;-71
2022/01/08 02:21:06;;;;;;;1.67;1.03;;;;;;;;;;10501688;28;20040;-72
2022/01/08 02:26:10;;;;;;;2.93;1.93;;;;;;;;;;10491014;28;20029;-72
2022/01/08 02:31:20;;;;;;;5.60;1.67;;;;;;;;;;10489045;28;20439;-72
2022/01/08 02:36:25;;;;;;;1.53;0.73;;;;;;;;;;10498637;28;20036;-73
2022/01/08 02:41:27;;;;;;;;;;;;;;;;;;10480580;28;20032;-73
2022/01/08 02:46:30;;;;;;;0.47;0.30;;;;;;;;;;10480423;28;19928;-73
2022/01/08 02:51:35;;;;;;;2.97;1.47;;;;;;;;;;10488760;28;20028;-70
2022/01/08 02:56:38;;;;;;;2.40;1.43;;;;;;;;;;10486681;28;20036;-72
2022/01/08 03:01:41;;;;;;;0.87;0.63;;;;;;;;;;10502321;28;20037;-71
2022/01/08 03:06:46;;;;;;;5.13;2.50;;;;;;;;;;10506342;28;20044;-72
2022/01/08 03:11:48;;;;;;;1.93;1.27;;;;;;;;;;10486775;28;20462;-72
2022/01/08 03:16:51;;;;;;;3.97;2.03;;;;;;;;;;10499997;28;20039;-72
2022/01/08 03:21:57;;;;;;;3.97;1.77;;;;;;;;;;10501184;28;20035;-71
2022/01/08 03:27:00;;;;;;;3.50;1.27;;;;;;;;;;10485420;28;20063;-71
2022/01/08 03:32:03;;;;;;;1.87;1.10;;;;;;;;;;10507271;28;20374;-72
2022/01/08 03:37:08;;;;;;;6.50;1.77;;;;;;;;;;10488525;28;20265;-72
2022/01/08 03:42:10;;;;;;;;;;;;;;;;;;10507036;28;20094;-71
2022/01/08 03:47:29;;;;;;;4.40;2.30;;;;;;;;;;10505972;28;20436;-72
2022/01/08 03:52:34;;;;;;;7.27;2.63;;;;;;;;;;10488575;28;20549;-72
2022/01/08 03:57:37;;;;;;;4.67;2.27;;;;;;;;;;10490961;28;20585;-72
2022/01/08 04:02:40;;;;;;;6.90;2.00;;;;;;;;;;10493835;28;20043;-72
2022/01/08 04:07:44;;;;;;;3.90;1.70;;;;;;;;;;10511936;28;20515;-73
2022/01/08 04:12:51;;;;;;;3.57;1.57;;;;;;;;;;10490553;28;20068;-71
2022/01/08 04:17:55;;;;;;;5.17;2.47;;;;;;;;;;10489403;28;20044;-73
2022/01/08 04:22:59;;;;;;;5.20;2.45;;;;;;;;;;10505422;28;20036;-72
2022/01/08 04:28:02;;;;;;;;;;;;;;;;;;10505981;28;20151;-72
2022/01/08 04:33:05;;;;;;;3.83;1.77;;;;;;;;;;10500129;28;20446;-73
2022/01/08 04:38:11;;;;;;;2.33;1.67;;;;;;;;;;10509188;22;20618;-74
2022/01/08 04:43:14;;;;;;;3.30;1.33;;;;;;;;;;10512159;28;20487;-75
2022/01/08 04:48:17;;;;;;;2.00;0.90;;;;;;;;;;10491677;28;20035;-74
2022/01/08 04:53:26;;;;;;;0.77;0.53;;;;;;;;;;10470219;28;20044;-74
2022/01/08 04:58:29;;;;;;;1.20;0.93;;;;;;;;;;10468900;28;20127;-75
2022/01/08 05:03:32;;;;;;;0.60;0.40;;;;;;;;;;10488821;28;20043;-75
2022/01/08 05:08:37;;;;;;;0.50;0.50;;;;;;;;;;10467866;28;20630;-74
2022/01/08 05:13:39;;;;;;;0.23;0.17;;;;;;;;;;10495307;28;20389;-74
2022/01/08 05:18:43;;;;;;;0.30;0.30;;;;;;;;;;10488308;28;20033;-74
2022/01/08 05:23:47;;;;;;;0.57;0.22;;;;;;;;;;10487702;28;20489;-74
2022/01/08 05:28:50;;;;;;;;;;;;;;;;;;10471414;28;20170;-74
2022/01/08 05:33:53;;;;;;;1.77;0.70;;;;;;;;;;10487870;28;19970;-75
2022/01/08 05:38:57;;;;;;;0.40;0.37;;;;;;;;;;10466945;28;20086;-74
2022/01/08 05:44:00;;;;;;;1.13;0.70;;;;;;;;;;10468893;28;20056;-74
2022/01/08 05:49:04;;;;;;;1.27;0.60;;;;;;;;;;10487108;28;20091;-74
2022/01/08 05:54:08;;;;;;;0.32;0.22;;;;;;;;;;10486383;28;20404;-73
2022/01/08 05:59:11;;;;;;;1.43;0.90;;;;;;;;;;10483663;28;20484;-72
2022/01/08 06:04:14;;;;;;;0.50;0.30;;;;;;;;;;10484884;28;20635;-72
2022/01/08 06:09:18;;;;;;;0.70;0.50;;;;;;;;;;10466693;28;20086;-73
2022/01/08 06:14:21;;;;;;;;;;;;;;;;;;10467894;28;20040;-74
2022/01/08 06:19:23;;;;;;;0.20;0.20;;;;;;;;;;10484588;28;19927;-76
2022/01/08 06:24:28;;;;;;;0.30;0.23;;;;;;;;;;10468643;28;20116;-78
2022/01/08 06:29:30;;;;;;;;;;;;;;;;;;10489103;28;20450;-76
2022/01/08 06:34:33;;;;;;;0.80;0.53;;;;;;;;;;10476616;28;19981;-76
2022/01/08 06:39:37;;;;;;;1.07;0.77;;;;;;;;;;10482177;28;20079;-75
2022/01/08 06:44:40;;;;;;;;;;;;;;;;;;10467779;28;20033;-75
2022/01/08 06:49:43;;;;;;;0.50;0.50;;;;;;;;;;10476401;28;20316;-76
2022/01/08 06:54:47;;;;;;;2.10;0.37;;;;;;;;;;10452374;28;20119;-74
2022/01/08 06:59:50;;;;;;;0.38;0.38;;;;;;;;;;10472623;28;20481;-74
2022/01/08 07:04:53;;;;;;;0.17;0.17;;;;;;;;;;10483353;28;20037;-74
2022/01/08 07:09:57;;;;;;;0.70;0.43;;;;;;;;;;10492359;28;20599;-75
2022/01/08 07:15:00;;;;;;;2.22;0.40;;;;;;;;;;10462645;28;20037;-75
2022/01/08 07:20:03;;;;;;;1.13;0.70;;;;;;;;;;10485232;28;20451;-76
2022/01/08 07:25:08;;;;;;;0.30;0.23;;;;;;;;;;10460669;28;20504;-77
2022/01/08 07:30:11;;;;;;;0.47;0.40;;;;;;;;;;10465084;28;20104;-73
2022/01/08 07:35:16;;;;;;;0.10;0.10;;;;;;;;;;10479657;28;20076;-76
2022/01/08 07:40:21;;;;;;;0.82;0.22;;;;;;;;;;10467830;28;20044;-75
2022/01/08 07:45:24;;;;;;;0.10;0.10;;;;;;;;;;10480070;28;20041;-75
2022/01/08 07:50:27;;;;;;;0.17;0.17;;;;;;;;;;10482397;28;20035;-74
2022/01/08 07:55:31;;;;;;;0.93;0.43;;;;;;;;;;10464035;28;20416;-74
2022/01/08 08:00:34;;;;;;;0.13;0.13;;;;;;;;;;10477123;28;20389;-73
2022/01/08 08:05:37;;;;;;;1.03;0.30;;;;;;;;;;10464527;28;20033;-72
2022/01/08 08:10:41;;;;;;;0.10;0.10;;;;;;;;;;10459178;28;20047;-72
2022/01/08 08:15:44;;;;;;;0.23;0.23;;;;;;;;;;10482987;28;20552;-76
2022/01/08 08:20:47;;;;;;;2.67;0.70;;;;;;;;;;10484960;28;20032;-73
2022/01/08 08:25:51;;;;;;;0.83;0.50;;;;;;;;;;10463932;28;20039;-74
2022/01/08 08:30:54;;;;;;;0.63;0.23;;;;;;;;;;10476231;28;20033;-75
2022/01/08 08:35:57;;;;;;;0.20;0.20;;;;;;;;;;10465101;28;20033;-74
2022/01/08 08:41:02;;;;;;;0.80;0.40;;;;;;;;;;10478825;28;20131;-74
2022/01/08 08:46:05;;;;;;;0.37;0.23;;;;;;;;;;10473793;28;20471;-73
2022/01/08 08:51:08;;;;;;;0.90;0.40;;;;;;;;;;10493234;28;20264;-74
2022/01/08 08:56:12;;;;;;;1.47;0.90;;;;;;;;;;10484318;28;20036;-74
2022/01/08 09:01:15;;;;;;;;;;;;;;;;;;10505265;28;20048;-73
2022/01/08 09:06:18;;;;;;;0.43;0.40;;;;;;;;;;10488956;28;19921;-74
2022/01/08 09:11:26;;;;;;;2.80;0.63;;;;;;;;;;10491265;28;20040;-74
2022/01/08 09:16:29;;;;;;;1.27;0.90;;;;;;;;;;10469000;28;20106;-73
2022/01/08 09:21:32;;;;;;;0.57;0.40;;;;;;;;;;10495430;28;20119;-73
2022/01/08 09:26:36;;;;;;;1.40;0.70;;;;;;;;;;10489965;28;20033;-73
2022/01/08 09:31:39;;;;;;;0.60;0.30;;;;;;;;;;10475291;28;20051;-73
2022/01/08 09:36:43;;;;;;;0.40;0.40;;;;;;;;;;10487046;28;20037;-74
2022/01/08 09:41:47;;;;;;;0.32;0.30;;;;;;;;;;10473777;28;20123;-73
2022/01/08 09:46:50;;;;;;;1.15;0.77;;;;;;;;;;10470762;28;20044;-72
2022/01/08 09:51:53;;;;;;;2.47;0.40;;;;;;;;;;10490013;28;20029;-73
2022/01/08 09:56:57;;;;;;;1.07;0.80;;;;;;;;;;10469654;28;20082;-73
2022/01/08 10:02:01;;;;;;;0.13;0.10;;;;;;;;;;10470783;28;20047;-72
2022/01/08 10:07:14;;;;;;;0.93;0.60;;;;;;;;;;10485388;28;20128;-75
2022/01/08 10:12:19;;;;;;;0.50;0.50;;;;;;;;;;10465397;28;20072;-73
2022/01/08 10:17:36;;;;;;;2.03;0.90;;;;;;;;;;10494021;28;20048;-72
2022/01/08 10:22:39;;;;;;;1.33;0.83;;;;;;;;;;10494441;28;20076;-74
2022/01/08 10:27:45;;;;;;;1.00;0.90;;;;;;;;;;10475870;28;20048;-73
2022/01/08 10:32:55;;;;;;;0.60;0.57;;;;;;;;;;10481046;28;20032;-74
2022/01/08 10:37:58;;;;;;;1.90;1.00;;;;;;;;;;10488746;22;20036;-68
2022/01/08 10:43:02;;;;;;;0.77;0.77;;;;;;;;;;10404276;28;20041;-69
2022/01/08 10:48:07;;;;;;;0.30;0.30;;;;;;;;;;10414843;28;20076;-70
2022/01/08 10:53:09;;;;;;;1.55;1.10;;;;;;;;;;10411761;28;20091;-71
2022/01/08 10:58:14;;;;;;;1.70;0.90;;;;;;;;;;10409775;28;20106;-71
2022/01/08 11:03:37;;;;;;;2.17;1.07;;;;;;;;;;10413513;28;20312;-71
2022/01/08 11:08:40;;;;;;;0.93;0.70;;;;;;;;;;10409059;28;20505;-71
2022/01/08 11:13:52;;;;;;;0.68;0.68;;;;;;;;;;10410721;28;20434;-71
2022/01/08 11:18:55;;;;;;;1.45;0.60;;;;;;;;;;10413011;28;20232;-71
2022/01/08 11:23:58;;;;;;;0.77;0.68;;;;;;;;;;10426027;28;20052;-72
2022/01/08 11:29:03;;;;;;;1.37;0.97;;;;;;;;;;10425511;28;20492;-71
2022/01/08 11:34:10;;;;;;;1.75;1.15;;;;;;;;;;10415562;28;20215;-72
2022/01/08 11:39:13;;;;;;;1.30;1.00;;;;;;;;;;10422711;28;20108;-71
2022/01/08 11:44:18;;;;;;;1.27;1.17;;;;;;;;;;10410588;28;20041;-72
2022/01/08 11:49:22;;;;;;;2.23;1.20;;;;;;;;;;10413338;28;20148;-70
2022/01/08 11:54:40;;;;;;;2.97;1.27;;;;;;;;;;10410095;28;20484;-71
2022/01/08 11:59:45;;;;;;;1.43;1.10;;;;;;;;;;10409310;28;20033;-72
2022/01/08 12:04:53;;;;;;;4.47;1.93;;;;;;;;;;10413426;28;20029;-70
2022/01/08 12:10:10;;;;;;;1.60;1.10;;;;;;;;;;10422981;28;20440;-70
2022/01/08 12:15:15;;;;;;;2.20;1.58;;;;;;;;;;10420369;28;20045;-72
2022/01/08 12:20:33;;;;;;;3.55;1.58;;;;;;;;;;10416874;28;20431;-69
2022/01/08 12:25:40;;;;;;;1.35;1.35;;;;;;;;;;10424517;28;20477;-73
2022/01/08 12:30:44;;;;;;;1.75;0.93;;;;;;;;;;10415757;28;20109;-71
2022/01/08 12:35:47;;;;;;;0.95;0.80;;;;;;;;;;10417748;28;20044;-71
2022/01/08 12:40:50;;;;;;;1.50;1.40;;;;;;;;;;10414316;28;20037;-72
2022/01/08 12:46:17;;;;;;;1.30;1.20;;;;;;;;;;10415319;28;20041;-70
2022/01/08 12:51:24;;;;;;;1.40;0.90;;;;;;;;;;10411005;28;20480;-69
2022/01/08 12:56:28;;;;;;;1.38;1.13;;;;;;;;;;10417916;28;20033;-71
2022/01/08 13:01:33;;;;;;;0.93;0.80;;;;;;;;;;10415762;28;20045;-70
2022/01/08 13:06:37;;;;;;;1.50;1.40;;;;;;;;;;10413887;28;20072;-71
2022/01/08 13:11:39;;;;;;;;;;;;;;;;;;10413117;28;20144;-70
2022/01/08 13:16:44;;;;;;;1.80;1.52;;;;;;;;;;10422047;28;19920;-70
2022/01/08 13:21:48;;;;;;;1.75;1.58;;;;;;;;;;10425006;28;20093;-71
2022/01/08 13:26:52;;;;;;;1.38;0.70;;;;;;;;;;10434298;28;20041;-73
2022/01/08 13:31:57;;;;;;;1.38;0.85;;;;;;;;;;10444654;28;20129;-73
2022/01/08 13:37:05;;;;;;;1.50;1.40;;;;;;;;;;10441905;28;20374;-71
2022/01/08 13:42:14;;;;;;;1.42;1.30;;;;;;;;;;10417520;28;20061;-69
2022/01/08 13:47:20;;;;;;;0.82;0.50;;;;;;;;;;10411052;28;20512;-70
2022/01/08 13:52:29;;;;;;;2.38;0.80;;;;;;;;;;10406724;28;20065;-70
2022/01/08 13:57:34;;;;;;;0.50;0.50;;;;;;;;;;10415285;28;20269;-71
2022/01/08 14:02:39;;;;;;;3.60;0.57;;;;;;;;;;10414583;28;20444;-71
2022/01/08 14:07:42;;;;;;;5.67;0.77;;;;;;;;;;10416513;28;20030;-70
2022/01/08 14:13:09;;;;;;;0.20;0.20;;;;;;;;;;10413367;28;20037;-70
2022/01/08 14:18:15;;;;;;;0.40;0.40;;;;;;;;;;10395767;28;20108;-71
2022/01/08 14:23:19;;;;;;;1.03;0.60;;;;;;;;;;10416921;28;20388;-71
2022/01/08 14:28:24;;;;;;;0.50;0.35;;;;;;;;;;10414858;28;20377;-71
2022/01/08 14:33:29;;;;;;;0.67;0.40;;;;;;;;;;10410197;28;20131;-73
2022/01/08 14:38:47;;;;;;;3.33;0.80;;;;;;;;;;10412834;28;20088;-74
2022/01/08 14:43:58;;;;;;;2.00;0.70;;;;;;;;;;10408087;28;20037;-70
2022/01/08 14:49:03;;;;;;;0.80;0.67;;;;;;;;;;10402620;28;20249;-72
2022/01/08 14:54:09;;;;;;;0.90;0.90;;;;;;;;;;10407093;28;20115;-72
2022/01/08 14:59:11;;;;;;;1.27;0.37;;;;;;;;;;10408401;28;20038;-68
2022/01/08 15:04:16;;;;;;;8.10;0.80;;;;;;;;;;10405098;28;20454;-69
2022/01/08 15:09:20;;;;;;;1.07;0.60;;;;;;;;;;10408340;28;20108;-70
2022/01/08 15:14:23;;;;;;;2.35;0.63;;;;;;;;;;10426309;28;20057;-72
2022/01/08 15:19:27;;;;;;;0.43;0.30;;;;;;;;;;10414552;28;20033;-71
2022/01/08 15:24:31;;;;;;;0.40;0.27;;;;;;;;;;10412982;28;20037;-71
2022/01/08 15:29:34;;;;;;;2.20;1.20;;;;;;;;;;10406669;28;20494;-71
2022/01/08 15:34:39;;;;;;;3.33;0.47;;;;;;;;;;10410591;28;20521;-70
2022/01/08 15:39:43;;;;;;;0.90;0.40;;;;;;;;;;10406015;28;20040;-70
2022/01/08 15:44:45;;;;;;;0.57;0.57;;;;;;;;;;10414160;28;20068;-71
2022/01/08 15:49:50;;;;;;;1.70;0.70;;;;;;;;;;10414976;28;20111;-71
2022/01/08 15:54:53;;;;;;;4.03;1.00;;;;;;;;;;10405937;28;20043;-70
2022/01/08 15:59:57;;;;;;;0.65;0.32;;;;;;;;;;10404984;28;20095;-71
2022/01/08 16:05:01;;;;;;;0.17;0.17;;;;;;;;;;10409367;28;20037;-71
2022/01/08 16:10:04;;;;;;;5.57;1.90;;;;;;;;;;10415932;28;20436;-70
2022/01/08 16:15:08;;;;;;;2.47;1.23;;;;;;;;;;10409771;28;20038;-72
2022/01/08 16:20:13;;;;;;;1.87;1.10;;;;;;;;;;10415230;28;20036;-71
2022/01/08 16:25:16;;;;;;;1.87;1.13;;;;;;;;;;10404039;28;20056;-70
2022/01/08 16:30:20;;;;;;;3.07;1.07;;;;;;;;;;10417895;28;20041;-71
2022/01/08 16:35:25;;;;;;;1.73;1.10;;;;;;;;;;10454094;28;20064;-73
2022/01/08 16:40:28;;;;;;;3.63;1.33;;;;;;;;;;10460894;22;20673;-77
2022/01/08 16:45:31;;;;;;;3.70;2.07;;;;;;;;;;10434141;28;20121;-77
2022/01/08 16:50:36;;;;;;;3.47;1.90;;;;;;;;;;10435632;28;20277;-78
2022/01/08 16:55:40;;;;;;;4.60;1.20;;;;;;;;;;10441820;28;20113;-77
2022/01/08 17:00:43;;;;;;;1.33;0.68;;;;;;;;;;10418442;28;20136;-77
2022/01/08 17:05:47;;;;;;;4.33;1.90;;;;;;;;;;10409795;28;20510;-78
2022/01/08 17:10:55;;;;;;;1.73;0.70;;;;;;;;;;10408552;28;20041;-77
2022/01/08 17:15:58;;;;;;;5.37;1.63;;;;;;;;;;10406817;28;20090;-75
2022/01/08 17:21:02;;;;;;;4.97;1.60;;;;;;;;;;10408478;28;20041;-76
2022/01/08 17:26:06;;;;;;;5.80;1.57;;;;;;;;;;10402528;28;20065;-75
2022/01/08 17:31:10;;;;;;;5.60;2.07;;;;;;;;;;10403799;28;20036;-76
2022/01/08 17:36:15;;;;;;;3.17;1.65;;;;;;;;;;10400304;28;20139;-76
2022/01/08 17:41:18;;;;;;;5.07;2.30;;;;;;;;;;10407108;28;20037;-77
2022/01/08 17:46:22;;;;;;;6.80;2.37;;;;;;;;;;10413688;28;20084;-76
2022/01/08 17:51:26;;;;;;;6.97;2.65;;;;;;;;;;10406849;28;20383;-77
2022/01/08 17:56:29;;;;;;;;;;;;;;;;;;10434026;28;20104;-76
2022/01/08 18:01:36;;;;;;;4.37;1.77;;;;;;;;;;10404411;28;20305;-77
2022/01/08 18:06:41;;;;;;;5.77;2.40;;;;;;;;;;10406158;28;20132;-77
2022/01/08 18:11:44;;;;;;;4.10;1.90;;;;;;;;;;10401397;28;20045;-76
2022/01/08 18:16:47;;;;;;;5.80;2.85;;;;;;;;;;10403690;28;20486;-76
2022/01/08 18:21:52;;;;;;;8.47;2.60;;;;;;;;;;10406476;28;20579;-76
2022/01/08 18:26:55;;;;;;;3.80;2.20;;;;;;;;;;10404199;28;20135;-76
2022/01/08 18:31:59;;;;;;;5.87;2.63;;;;;;;;;;10403491;28;20107;-75
2022/01/08 18:37:04;;;;;;;6.10;1.77;;;;;;;;;;10402074;28;20107;-76
2022/01/08 18:42:07;;;;;;;5.63;2.60;;;;;;;;;;10400979;28;20387;-77
2022/01/08 18:47:12;;;;;;;9.43;2.95;;;;;;;;;;10402390;28;20147;-77
2022/01/08 18:52:17;;;;;;;4.33;1.50;;;;;;;;;;10401805;28;20033;-75
2022/01/08 18:57:20;;;;;;;5.20;2.60;;;;;;;;;;10406061;28;20068;-75
2022/01/08 19:02:24;;;;;;;5.77;2.50;;;;;;;;;;10405878;28;20099;-76
2022/01/08 19:07:28;;;;;;;7.60;3.07;;;;;;;;;;10400016;28;20060;-76
2022/01/08 19:12:30;;;;;;;;;;;;;;;;;;10417706;28;20049;-75
2022/01/08 19:17:33;;;;;;;5.27;2.33;;;;;;;;;;10400900;28;19921;-75
2022/01/08 19:22:39;;;;;;;4.10;2.03;;;;;;;;;;10407144;28;20039;-75
2022/01/08 19:27:42;;;;;;;4.50;1.97;;;;;;;;;;10399727;28;20042;-75
2022/01/08 19:32:45;;;;;;;7.40;3.63;;;;;;;;;;10398792;28;20052;-76
2022/01/08 19:37:50;;;;;;;4.90;2.13;;;;;;;;;;10407006;28;20057;-78
2022/01/08 19:42:53;;;;;;;;;;;;;;;;;;10416858;28;20037;-76
2022/01/08 19:47:56;;;;;;;7.93;3.87;;;;;;;;;;10402261;28;20024;-76
2022/01/08 19:53:00;;;;;;;4.87;2.37;;;;;;;;;;10404042;28;20041;-74
2022/01/08 19:58:03;;;;;;;3.20;1.77;;;;;;;;;;10405912;28;20061;-77
2022/01/08 20:03:06;;;;;;;7.33;3.07;;;;;;;;;;10408871;28;20041;-76
2022/01/08 20:08:11;;;;;;;9.00;3.80;;;;;;;;;;10402855;28;20445;-78
2022/01/08 20:13:15;;;;;;;5.23;2.80;;;;;;;;;;10406115;28;20095;-77
2022/01/08 20:18:18;;;;;;;5.72;2.53;;;;;;;;;;10399704;28;20452;-76
2022/01/08 20:23:25;;;;;;;5.43;2.58;;;;;;;;;;10407147;28;20025;-77
2022/01/08 20:28:28;;;;;;;4.40;1.07;;;;;;;;;;10399177;28;20092;-78
2022/01/08 20:33:32;;;;;;;5.23;2.30;;;;;;;;;;10415644;28;20114;-78
2022/01/08 20:38:36;;;;;;;5.55;2.65;;;;;;;;;;10418026;28;20057;-78
2022/01/08 20:43:39;;;;;;;;;;;;;;;;;;10420292;28;20379;-79
2022/01/08 20:48:42;;;;;;;2.33;1.17;;;;;;;;;;10407617;28;20317;-79
2022/01/08 20:53:47;;;;;;;5.23;2.00;;;;;;;;;;10414055;28;20065;-78
2022/01/08 20:58:49;;;;;;;4.17;1.70;;;;;;;;;;10414718;28;20068;-79
2022/01/08 21:03:52;;;;;;;3.63;1.40;;;;;;;;;;10411662;28;20091;-78
2022/01/08 21:08:57;;;;;;;4.70;2.30;;;;;;;;;;10409804;28;20063;-78
2022/01/08 21:14:00;;;;;;;7.57;2.83;;;;;;;;;;10412965;28;20040;-75
2022/01/08 21:19:03;;;;;;;2.85;1.70;;;;;;;;;;10407765;28;20470;-76
2022/01/08 21:24:08;;;;;;;2.83;1.67;;;;;;;;;;10448560;28;20113;-77
2022/01/08 21:29:12;;;;;;;1.80;1.50;;;;;;;;;;10403919;28;20088;-78
2022/01/08 21:34:15;;;;;;;1.33;0.87;;;;;;;;;;10405645;28;20050;-78
2022/01/08 21:39:23;;;;;;;5.10;1.88;;;;;;;;;;10405028;28;20099;-76
2022/01/08 21:44:29;;;;;;;5.90;1.90;;;;;;;;;;10407010;28;20053;-78
2022/01/08 21:49:32;;;;;;;2.87;1.37;;;;;;;;;;10406161;28;20183;-76
2022/01/08 21:54:37;;;;;;;0.63;0.63;;;;;;;;;;10404717;28;20057;-76
2022/01/08 21:59:41;;;;;;;0.90;0.83;;;;;;;;;;10407213;28;20190;-76
2022/01/08 22:04:44;;;;;;;4.40;1.73;;;;;;;;;;10405631;28;20223;-75
2022/01/08 22:09:49;;;;;;;1.87;0.80;;;;;;;;;;10406572;28;20034;-74
2022/01/08 22:14:52;;;;;;;1.57;0.60;;;;;;;;;;10403268;28;20335;-77
2022/01/08 22:19:55;;;;;;;2.03;1.00;;;;;;;;;;10405801;28;20116;-75
2022/01/08 22:24:59;;;;;;;5.23;1.70;;;;;;;;;;10404776;28;20538;-78
2022/01/08 22:30:02;;;;;;;;;;;;;;;;;;10413836;28;20042;-78
2022/01/08 22:35:06;;;;;;;0.87;0.53;;;;;;;;;;10412063;28;19921;-79
2022/01/08 22:40:12;;;;;;;3.05;1.40;;;;;;;;;;10446805;22;20493;-76
2022/01/08 22:45:15;;;;;;;2.30;1.43;;;;;;;;;;10440923;28;20147;-73
2022/01/08 22:50:18;;;;;;;4.97;2.20;;;;;;;;;;10437008;28;20075;-71
2022/01/08 22:55:23;;;;;;;5.57;1.50;;;;;;;;;;10438363;28;20296;-73
2022/01/08 23:00:28;;;;;;;;;;;;;;;;;;10441171;28;20037;-72
2022/01/08 23:05:31;;;;;;;4.53;1.60;;;;;;;;;;10451929;28;19956;-72
2022/01/08 23:10:36;;;;;;;4.63;1.60;;;;;;;;;;10436618;28;20104;-72
2022/01/08 23:15:39;;;;;;;0.97;0.80;;;;;;;;;;10430388;28;20038;-72
2022/01/08 23:20:45;;;;;;;1.83;1.00;;;;;;;;;;10430089;28;20057;-71
2022/01/08 23:25:50;;;;;;;3.67;1.00;;;;;;;;;;10446608;28;20128;-72
2022/01/08 23:30:53;;;;;;;;;;;;;;;;;;10430682;28;20550;-72
2022/01/08 23:35:56;;;;;;;4.00;1.33;;;;;;;;;;10430415;28;20011;-72
2022/01/08 23:41:00;;;;;;;3.90;2.00;;;;;;;;;;10428368;28;20033;-72
2022/01/08 23:46:04;;;;;;;1.47;1.07;;;;;;;;;;10428723;28;20382;-71
2022/01/08 23:51:14;;;;;;;1.30;0.87;;;;;;;;;;10428487;28;20134;-72
2022/01/08 23:56:18;;;;;;;2.60;1.17;;;;;;;;;;10450836;28;20042;-73
